Terminal Aerodrome Forecast
Issued by NWS Nashville, TN

Home | Current Version | Previous Version | Text Only | Print | Product List | Glossary On
Versions: 1 2 3 4 5 6 7 8 9 10 11 12 13 14
795
FTUS44 KOHX 221728
TAFCSV
TAF
KCSV 221728Z 2218/2318 25008G16KT P6SM VCTS SCT030 BKN040CB
      TEMPO 2301/2304 3SM -TSRA BR BKN030CB OVC040
     FM230600 31006KT P6SM SCT050 BKN100
     FM230800 34005KT 5SM BR OVC020
     FM231000 34003KT 2SM BR OVC010
     FM231400 34007KT 5SM BR BKN015
     FM231600 34008KT P6SM BKN035=

USA.gov is the U.S. government's official web portal to all federal, state and local government web resources and services.